Time;durP1;ratioP1;P1;durP2;ratioP2;P2;SDS_P1;SDS_P2;PMS_P1;PMS_P2;Temp;Humidity;BMP_temperature;BMP_pressure;BME280_temperature;BME280_humidity;BME280_pressure;Samples;Min_cycle;Max_cycle;Signal;HPM_P1;HPM_P2
2022/12/26 00:00:15;;;;;;;14.73;11.10;;;;;;;;;;5011490;28;20231;-72
2022/12/26 00:02:40;;;;;;;15.57;11.18;;;;;;;;;;5012487;28;20614;-72
2022/12/26 00:05:05;;;;;;;18.98;12.73;;;;;;;;;;5012203;28;20231;-72
2022/12/26 00:07:31;;;;;;;19.10;12.85;;;;;;;;;;5011560;28;20231;-72
2022/12/26 00:09:56;;;;;;;16.77;12.20;;;;;;;;;;5012615;28;20216;-72
2022/12/26 00:12:21;;;;;;;28.45;15.80;;;;;;;;;;5011970;28;20665;-72
2022/12/26 00:14:46;;;;;;;19.75;13.35;;;;;;;;;;5011899;28;20204;-72
2022/12/26 00:17:12;;;;;;;20.63;13.63;;;;;;;;;;5011900;28;20220;-71
2022/12/26 00:19:37;;;;;;;18.95;13.20;;;;;;;;;;5012545;28;20292;-72
2022/12/26 00:22:02;;;;;;;23.60;14.15;;;;;;;;;;5011336;28;20228;-71
2022/12/26 00:24:27;;;;;;;24.70;15.23;;;;;;;;;;5012407;28;20220;-72
2022/12/26 00:26:53;;;;;;;26.00;16.02;;;;;;;;;;5012350;28;20212;-72
2022/12/26 00:29:18;;;;;;;30.58;15.98;;;;;;;;;;5010980;28;20235;-72
2022/12/26 00:31:43;;;;;;;27.08;14.98;;;;;;;;;;5012429;28;20247;-72
2022/12/26 00:34:08;;;;;;;29.23;16.13;;;;;;;;;;5011747;28;20224;-71
2022/12/26 00:36:34;;;;;;;27.38;17.20;;;;;;;;;;5011563;28;20205;-72
2022/12/26 00:38:59;;;;;;;27.15;16.50;;;;;;;;;;5012266;28;20284;-72
2022/12/26 00:41:25;;;;;;;30.30;16.90;;;;;;;;;;4999250;28;20229;-72
2022/12/26 00:43:50;;;;;;;30.05;15.95;;;;;;;;;;4992075;28;20268;-72
2022/12/26 00:46:16;;;;;;;27.25;16.08;;;;;;;;;;4991049;28;20659;-72
2022/12/26 00:48:41;;;;;;;31.37;16.73;;;;;;;;;;4992469;28;20225;-72
2022/12/26 00:51:06;;;;;;;30.95;16.63;;;;;;;;;;4990194;28;20264;-71
2022/12/26 00:53:32;;;;;;;35.42;17.48;;;;;;;;;;4992486;28;20217;-72
2022/12/26 00:55:57;;;;;;;40.45;18.00;;;;;;;;;;5002078;28;20243;-72
2022/12/26 00:58:22;;;;;;;39.10;17.20;;;;;;;;;;5010358;28;20212;-72
2022/12/26 01:00:48;;;;;;;34.40;17.20;;;;;;;;;;5011047;28;20221;-72
2022/12/26 01:03:13;;;;;;;36.15;17.67;;;;;;;;;;5010736;28;20278;-72
2022/12/26 01:05:45;;;;;;;34.00;16.83;;;;;;;;;;5013524;28;20350;-72
2022/12/26 01:08:10;;;;;;;44.25;18.75;;;;;;;;;;5015018;28;20236;-72
2022/12/26 01:10:36;;;;;;;42.15;18.92;;;;;;;;;;5014859;28;20212;-72
2022/12/26 01:13:01;;;;;;;40.83;20.05;;;;;;;;;;5014982;28;20209;-71
2022/12/26 01:15:26;;;;;;;37.42;18.52;;;;;;;;;;5014327;28;20208;-72
2022/12/26 01:17:51;;;;;;;36.15;18.10;;;;;;;;;;5013391;28;20683;-72
2022/12/26 01:20:17;;;;;;;33.05;17.85;;;;;;;;;;5014991;28;20224;-72
2022/12/26 01:22:42;;;;;;;28.58;16.55;;;;;;;;;;5015176;28;20209;-73
2022/12/26 01:25:07;;;;;;;32.53;17.30;;;;;;;;;;5014298;28;20577;-72
2022/12/26 01:27:33;;;;;;;29.35;17.27;;;;;;;;;;5013691;28;20279;-73
2022/12/26 01:29:58;;;;;;;35.80;18.55;;;;;;;;;;5015242;28;20208;-72
2022/12/26 01:32:23;;;;;;;30.20;17.42;;;;;;;;;;5013856;28;20648;-72
2022/12/26 01:34:50;;;;;;;31.20;17.90;;;;;;;;;;5015085;28;20618;-72
2022/12/26 01:37:16;;;;;;;29.88;17.30;;;;;;;;;;5014486;28;20212;-72
2022/12/26 01:39:41;;;;;;;27.07;16.60;;;;;;;;;;5014269;28;20616;-72
2022/12/26 01:42:10;;;;;;;29.33;17.15;;;;;;;;;;5014297;28;20224;-71
2022/12/26 01:44:54;;;;;;;28.10;16.48;;;;;;;;;;5013754;28;20274;-73
2022/12/26 01:47:19;;;;;;;27.95;17.42;;;;;;;;;;5013504;28;20213;-72
2022/12/26 01:49:46;;;;;;;27.70;16.48;;;;;;;;;;5013393;28;20577;-72
2022/12/26 01:52:12;;;;;;;27.17;16.40;;;;;;;;;;5012336;28;20208;-72
2022/12/26 01:54:37;;;;;;;27.05;16.20;;;;;;;;;;5030016;28;20585;-72
2022/12/26 01:57:03;;;;;;;25.48;16.80;;;;;;;;;;4993710;28;20213;-71
2022/12/26 01:59:29;;;;;;;24.80;15.90;;;;;;;;;;4992961;28;20328;-72
2022/12/26 02:01:54;;;;;;;24.85;15.82;;;;;;;;;;4995059;28;20295;-72
2022/12/26 02:07:05;;;;;;;25.17;16.15;;;;;;;;;;5008037;28;20255;-71
2022/12/26 02:09:30;;;;;;;22.58;15.60;;;;;;;;;;5013133;28;20216;-72
2022/12/26 02:12:03;;;;;;;21.38;14.85;;;;;;;;;;5014528;28;20213;-72
2022/12/26 02:14:29;;;;;;;26.08;16.30;;;;;;;;;;5011947;28;20217;-71
2022/12/26 02:16:54;;;;;;;22.77;15.60;;;;;;;;;;5013343;28;20208;-72
2022/12/26 02:19:34;;;;;;;24.73;15.65;;;;;;;;;;5013885;28;20216;-72
2022/12/26 02:22:10;;;;;;;25.75;16.25;;;;;;;;;;5012361;28;20204;-72
2022/12/26 02:24:42;;;;;;;24.23;15.45;;;;;;;;;;5012704;28;20694;-72
2022/12/26 02:27:07;;;;;;;25.67;16.77;;;;;;;;;;5013522;28;20299;-72
2022/12/26 02:29:56;;;;;;;24.35;16.77;;;;;;;;;;5013091;28;20631;-72
2022/12/26 02:32:25;;;;;;;23.55;15.38;;;;;;;;;;5012346;28;20212;-72
2022/12/26 02:34:58;;;;;;;27.63;17.92;;;;;;;;;;5011930;28;20274;-72
2022/12/26 02:37:23;;;;;;;25.23;16.60;;;;;;;;;;5012220;28;20204;-72
2022/12/26 02:39:49;;;;;;;23.65;16.50;;;;;;;;;;5013923;28;20254;-72
2022/12/26 02:42:23;;;;;;;23.48;16.00;;;;;;;;;;5012432;28;20212;-72
2022/12/26 02:47:42;;;;;;;23.92;16.42;;;;;;;;;;5013493;28;20231;-72
2022/12/26 03:15:11;;;;;;;24.45;16.92;;;;;;;;;;4987635;28;20278;-73
2022/12/26 03:17:38;;;;;;;23.27;17.17;;;;;;;;;;4979678;28;20210;-74
2022/12/26 03:20:05;;;;;;;23.40;17.08;;;;;;;;;;4975808;28;20213;-73
2022/12/26 03:22:33;;;;;;;25.30;18.13;;;;;;;;;;4974153;28;20625;-73
2022/12/26 03:27:42;;;;;;;22.93;16.87;;;;;;;;;;4990646;28;20228;-74
2022/12/26 03:32:54;;;;;;;23.03;16.60;;;;;;;;;;4983016;28;20266;-73
2022/12/26 03:35:19;;;;;;;24.92;17.20;;;;;;;;;;5000766;28;20224;-73
2022/12/26 03:37:46;;;;;;;26.17;16.95;;;;;;;;;;5000507;28;20697;-73
2022/12/26 04:19:36;;;;;;;30.47;21.03;;;;;;;;;;4986403;28;20291;-73
2022/12/26 04:44:06;;;;;;;30.83;22.23;;;;;;;;;;4986189;28;20274;-73
2022/12/26 04:46:33;;;;;;;31.13;22.63;;;;;;;;;;4985238;28;20217;-73
2022/12/26 04:51:42;;;;;;;29.27;21.83;;;;;;;;;;4995512;28;20217;-73
2022/12/26 04:54:07;;;;;;;28.48;22.58;;;;;;;;;;4997262;28;20208;-72
2022/12/26 04:56:32;;;;;;;28.30;21.23;;;;;;;;;;4988150;28;20751;-73
2022/12/26 04:58:58;;;;;;;27.25;20.58;;;;;;;;;;4986440;28;20216;-73
2022/12/26 05:09:38;;;;;;;24.95;19.88;;;;;;;;;;4985360;28;20434;-73
2022/12/26 05:12:05;;;;;;;24.38;19.35;;;;;;;;;;4979485;28;20917;-73
2022/12/26 05:14:30;;;;;;;22.73;18.98;;;;;;;;;;4976748;28;20216;-73
2022/12/26 05:30:39;;;;;;;21.40;17.02;;;;;;;;;;4984979;28;20243;-73
2022/12/26 05:35:48;;;;;;;21.92;16.75;;;;;;;;;;4977329;28;20240;-73
2022/12/26 05:38:14;;;;;;;18.83;15.90;;;;;;;;;;4976426;28;20217;-73
2022/12/26 05:40:39;;;;;;;17.77;14.98;;;;;;;;;;4978316;28;20205;-73
2022/12/26 05:43:04;;;;;;;16.88;14.52;;;;;;;;;;4984828;28;20271;-72
2022/12/26 05:45:29;;;;;;;18.63;14.50;;;;;;;;;;4985097;28;20213;-73
2022/12/26 05:47:56;;;;;;;16.35;13.38;;;;;;;;;;4985223;28;20357;-73
2022/12/26 05:50:22;;;;;;;16.87;13.20;;;;;;;;;;4983762;28;20213;-73
2022/12/26 05:52:47;;;;;;;15.57;13.18;;;;;;;;;;4984689;28;20676;-73
2022/12/26 05:55:12;;;;;;;15.50;13.45;;;;;;;;;;4984763;28;20830;-72
2022/12/26 05:57:37;;;;;;;15.73;13.02;;;;;;;;;;4978171;28;20201;-73
2022/12/26 06:00:03;;;;;;;14.23;12.52;;;;;;;;;;4975973;28;20224;-72
2022/12/26 06:02:28;;;;;;;14.50;11.52;;;;;;;;;;4976055;28;20213;-73
2022/12/26 06:04:53;;;;;;;14.00;11.53;;;;;;;;;;4984281;28;20209;-73
2022/12/26 06:07:19;;;;;;;12.98;10.27;;;;;;;;;;4984243;28;20213;-73
2022/12/26 06:09:44;;;;;;;11.57;9.23;;;;;;;;;;4999480;28;20275;-73
2022/12/26 06:12:09;;;;;;;12.43;8.88;;;;;;;;;;4984643;28;20216;-72
2022/12/26 06:14:34;;;;;;;10.83;8.60;;;;;;;;;;4983873;28;20213;-73
2022/12/26 06:17:00;;;;;;;9.67;7.80;;;;;;;;;;4985037;28;20623;-73
2022/12/26 06:19:25;;;;;;;10.93;8.18;;;;;;;;;;4979618;28;20727;-73
2022/12/26 06:21:50;;;;;;;10.10;7.23;;;;;;;;;;4977200;28;20256;-73
2022/12/26 06:24:16;;;;;;;9.80;6.60;;;;;;;;;;4976306;28;20218;-73
2022/12/26 06:26:41;;;;;;;9.07;6.30;;;;;;;;;;4980316;28;20209;-73
2022/12/26 06:29:06;;;;;;;9.38;6.22;;;;;;;;;;4984050;28;20230;-72
2022/12/26 06:31:31;;;;;;;9.68;6.00;;;;;;;;;;4984726;28;20325;-73
2022/12/26 06:33:57;;;;;;;8.75;5.30;;;;;;;;;;4983497;28;20225;-73
2022/12/26 06:36:22;;;;;;;8.87;6.00;;;;;;;;;;4984225;28;20302;-73
2022/12/26 06:38:48;;;;;;;9.45;6.53;;;;;;;;;;4984834;28;20209;-73
2022/12/26 06:41:14;;;;;;;9.20;5.82;;;;;;;;;;4980939;28;20287;-73
2022/12/26 06:43:39;;;;;;;10.55;5.93;;;;;;;;;;4977027;28;20214;-73
2022/12/26 06:46:05;;;;;;;9.53;5.30;;;;;;;;;;4975938;28;20217;-72
2022/12/26 06:48:30;;;;;;;10.10;5.80;;;;;;;;;;4977380;28;20826;-73
2022/12/26 06:50:56;;;;;;;13.47;5.80;;;;;;;;;;4984359;28;20213;-74
2022/12/26 06:53:21;;;;;;;10.45;5.80;;;;;;;;;;4998758;28;20209;-72
2022/12/26 06:55:47;;;;;;;9.10;5.23;;;;;;;;;;4983541;28;20621;-72
2022/12/26 06:58:12;;;;;;;10.10;5.68;;;;;;;;;;4983538;28;20224;-71
2022/12/26 07:00:37;;;;;;;11.20;5.67;;;;;;;;;;4984330;28;20205;-71
2022/12/26 07:03:03;;;;;;;8.70;5.30;;;;;;;;;;4982220;28;20221;-71
2022/12/26 07:05:28;;;;;;;11.30;5.95;;;;;;;;;;4977948;28;20264;-71
2022/12/26 07:07:53;;;;;;;9.43;5.90;;;;;;;;;;4975529;28;20237;-71
2022/12/26 07:10:19;;;;;;;8.93;5.82;;;;;;;;;;4974998;28;20267;-71
2022/12/26 07:12:44;;;;;;;10.33;5.93;;;;;;;;;;4982290;28;20235;-71
2022/12/26 07:15:10;;;;;;;8.32;5.60;;;;;;;;;;4983639;28;20700;-71
2022/12/26 07:17:36;;;;;;;9.70;6.25;;;;;;;;;;4981661;28;20684;-71
2022/12/26 07:20:01;;;;;;;9.20;5.60;;;;;;;;;;4982994;28;20225;-70
2022/12/26 07:22:27;;;;;;;10.40;6.30;;;;;;;;;;4983859;28;20217;-72
2022/12/26 07:24:52;;;;;;;10.75;6.22;;;;;;;;;;4982921;28;20217;-72
2022/12/26 07:27:17;;;;;;;10.55;6.38;;;;;;;;;;4979921;28;20240;-71
2022/12/26 07:29:43;;;;;;;11.33;6.47;;;;;;;;;;4979507;28;20756;-69
2022/12/26 07:32:08;;;;;;;8.73;6.45;;;;;;;;;;4974802;28;20252;-68
2022/12/26 07:34:33;;;;;;;10.95;6.75;;;;;;;;;;4993996;28;20225;-68
2022/12/26 07:36:58;;;;;;;10.20;7.32;;;;;;;;;;4982443;28;20252;-68
2022/12/26 07:39:24;;;;;;;8.57;6.82;;;;;;;;;;4976595;28;20232;-68
2022/12/26 07:41:58;;;;;;;8.88;6.93;;;;;;;;;;4974582;28;20303;-68
2022/12/26 07:44:25;;;;;;;10.13;6.53;;;;;;;;;;4972586;28;20706;-68
2022/12/26 07:46:50;;;;;;;10.13;6.73;;;;;;;;;;4977436;28;20746;-68
2022/12/26 07:49:15;;;;;;;11.23;7.00;;;;;;;;;;4976951;28;20225;-68
2022/12/26 07:51:41;;;;;;;10.65;7.07;;;;;;;;;;4971833;28;20441;-69
2022/12/26 07:54:06;;;;;;;8.87;6.43;;;;;;;;;;4970547;28;20309;-68
2022/12/26 07:56:31;;;;;;;9.32;6.53;;;;;;;;;;4998756;28;20417;-68
2022/12/26 07:58:57;;;;;;;9.25;6.45;;;;;;;;;;4997358;28;20208;-69
2022/12/26 08:01:22;;;;;;;11.77;6.63;;;;;;;;;;4999882;28;20358;-68
2022/12/26 08:03:48;;;;;;;9.77;6.28;;;;;;;;;;4997825;28;20553;-68
2022/12/26 08:06:13;;;;;;;12.80;6.40;;;;;;;;;;4997312;28;20598;-67
2022/12/26 08:08:38;;;;;;;9.87;7.47;;;;;;;;;;4999725;28;20423;-66
2022/12/26 08:11:04;;;;;;;9.52;6.22;;;;;;;;;;5004458;28;20224;-68
2022/12/26 08:13:30;;;;;;;9.27;6.13;;;;;;;;;;5004674;28;20447;-68
2022/12/26 08:15:55;;;;;;;8.30;5.18;;;;;;;;;;5007739;28;20216;-69
2022/12/26 08:18:20;;;;;;;7.68;4.97;;;;;;;;;;5009323;28;20212;-69
2022/12/26 08:20:46;;;;;;;7.85;4.85;;;;;;;;;;5009294;28;20204;-68
2022/12/26 08:23:11;;;;;;;8.75;4.95;;;;;;;;;;5008726;28;20214;-68
2022/12/26 08:25:36;;;;;;;8.47;4.53;;;;;;;;;;5002249;28;20418;-68
2022/12/26 08:28:01;;;;;;;7.00;4.57;;;;;;;;;;5000531;28;20220;-68
2022/12/26 08:30:27;;;;;;;7.20;4.83;;;;;;;;;;5002679;28;20422;-68
2022/12/26 08:32:52;;;;;;;9.90;5.00;;;;;;;;;;5007547;28;20232;-69
2022/12/26 08:35:17;;;;;;;7.35;4.05;;;;;;;;;;5008692;28;20668;-69
2022/12/26 08:37:43;;;;;;;6.60;3.60;;;;;;;;;;5009368;28;20213;-69
2022/12/26 08:40:08;;;;;;;7.97;3.83;;;;;;;;;;5008407;28;20707;-67
2022/12/26 08:42:33;;;;;;;6.07;3.30;;;;;;;;;;5008380;28;20318;-67
2022/12/26 08:44:59;;;;;;;6.70;3.67;;;;;;;;;;5008230;28;20442;-68
2022/12/26 08:47:26;;;;;;;7.72;3.55;;;;;;;;;;5003782;28;20311;-69
2022/12/26 08:49:51;;;;;;;7.70;3.08;;;;;;;;;;5001738;28;20212;-68
2022/12/26 08:52:16;;;;;;;6.70;3.17;;;;;;;;;;5001555;28;20215;-69
2022/12/26 08:54:41;;;;;;;5.15;3.00;;;;;;;;;;5003556;28;20279;-69
2022/12/26 08:57:07;;;;;;;5.80;2.85;;;;;;;;;;5008709;28;20208;-67
2022/12/26 08:59:32;;;;;;;6.00;2.78;;;;;;;;;;5007770;28;20297;-68
2022/12/26 09:01:58;;;;;;;7.15;2.78;;;;;;;;;;5008446;28;20216;-67
2022/12/26 09:04:23;;;;;;;8.80;3.20;;;;;;;;;;5009107;28;20310;-68
2022/12/26 09:06:48;;;;;;;5.25;2.60;;;;;;;;;;5008916;28;20223;-67
2022/12/26 09:09:13;;;;;;;7.47;2.65;;;;;;;;;;5006503;28;20591;-68
2022/12/26 09:11:39;;;;;;;5.97;2.40;;;;;;;;;;5000940;28;20302;-67
2022/12/26 09:14:05;;;;;;;6.30;2.65;;;;;;;;;;5000645;28;20252;-66
2022/12/26 09:16:31;;;;;;;5.32;2.33;;;;;;;;;;5000726;28;20303;-68
2022/12/26 09:18:57;;;;;;;5.93;2.55;;;;;;;;;;5007646;28;20207;-65
2022/12/26 09:21:22;;;;;;;4.23;2.20;;;;;;;;;;5007571;28;20208;-69
2022/12/26 09:23:48;;;;;;;4.27;2.10;;;;;;;;;;5006983;28;20274;-70
2022/12/26 09:26:14;;;;;;;4.95;2.35;;;;;;;;;;5008213;28;20209;-67
2022/12/26 09:28:39;;;;;;;8.77;2.30;;;;;;;;;;5008925;28;20311;-68
2022/12/26 09:31:05;;;;;;;6.40;2.08;;;;;;;;;;5007676;28;20312;-71
2022/12/26 09:33:32;;;;;;;6.73;2.30;;;;;;;;;;5000911;28;20228;-70
2022/12/26 09:35:57;;;;;;;6.45;2.22;;;;;;;;;;5000972;28;20513;-67
2022/12/26 09:38:22;;;;;;;3.92;2.05;;;;;;;;;;5000692;28;20216;-66
2022/12/26 09:40:53;;;;;;;5.77;2.20;;;;;;;;;;5006735;28;20744;-67
2022/12/26 09:43:27;;;;;;;5.53;2.40;;;;;;;;;;5008669;28;20251;-69
2022/12/26 09:45:59;;;;;;;7.25;1.92;;;;;;;;;;5007139;28;20221;-68
2022/12/26 09:48:26;;;;;;;7.23;2.00;;;;;;;;;;5006539;28;20228;-68
2022/12/26 09:50:51;;;;;;;4.63;2.00;;;;;;;;;;5008535;28;20565;-68
2022/12/26 09:53:18;;;;;;;8.07;1.95;;;;;;;;;;5022848;28;20220;-68
2022/12/26 09:55:45;;;;;;;7.90;2.25;;;;;;;;;;5001851;28;20229;-68
2022/12/26 09:58:16;;;;;;;10.25;2.58;;;;;;;;;;4997952;28;20236;-68
2022/12/26 10:00:49;;;;;;;8.10;2.50;;;;;;;;;;5001372;28;20735;-68
2022/12/26 10:03:14;;;;;;;7.10;2.17;;;;;;;;;;5005622;28;20223;-68
2022/12/26 10:05:42;;;;;;;7.88;2.28;;;;;;;;;;5006234;28;20212;-68
2022/12/26 10:08:14;;;;;;;5.57;2.30;;;;;;;;;;5006360;28;20224;-69
2022/12/26 10:10:44;;;;;;;4.68;2.03;;;;;;;;;;5003174;28;20220;-69
2022/12/26 10:13:29;;;;;;;8.23;2.67;;;;;;;;;;5006668;28;20200;-68
2022/12/26 10:15:58;;;;;;;8.57;2.53;;;;;;;;;;5007433;28;20247;-69
2022/12/26 10:18:27;;;;;;;7.22;2.83;;;;;;;;;;5000355;28;20223;-68
2022/12/26 10:20:58;;;;;;;7.93;2.65;;;;;;;;;;4997705;28;20391;-69
2022/12/26 10:23:25;;;;;;;6.05;2.35;;;;;;;;;;5000298;28;20213;-69
2022/12/26 10:25:52;;;;;;;12.68;4.97;;;;;;;;;;5004413;28;20200;-69
2022/12/26 10:28:24;;;;;;;30.40;12.75;;;;;;;;;;5007377;28;20232;-69
2022/12/26 10:30:49;;;;;;;12.80;5.60;;;;;;;;;;5006127;28;20208;-67
2022/12/26 10:33:19;;;;;;;9.77;5.15;;;;;;;;;;5007111;28;20239;-67
2022/12/26 10:35:45;;;;;;;35.45;17.90;;;;;;;;;;5006748;28;20228;-67
2022/12/26 10:38:12;;;;;;;9.02;3.65;;;;;;;;;;5006586;28;20240;-67
2022/12/26 10:40:40;;;;;;;8.45;2.63;;;;;;;;;;5001505;28;20487;-67
2022/12/26 10:43:27;;;;;;;10.95;4.90;;;;;;;;;;4997529;28;20212;-69
2022/12/26 10:45:52;;;;;;;7.25;2.83;;;;;;;;;;4998690;28;20231;-68
2022/12/26 10:48:17;;;;;;;5.85;1.95;;;;;;;;;;5002967;28;20775;-68
2022/12/26 10:50:44;;;;;;;5.78;2.28;;;;;;;;;;5007871;28;20216;-69
2022/12/26 10:53:09;;;;;;;7.47;2.35;;;;;;;;;;5007158;28;20690;-69
2022/12/26 10:55:35;;;;;;;7.32;2.63;;;;;;;;;;5005339;28;20208;-69
2022/12/26 10:58:06;;;;;;;9.00;2.20;;;;;;;;;;5005964;28;20213;-70
2022/12/26 11:00:32;;;;;;;7.23;2.30;;;;;;;;;;5005838;28;20212;-69
2022/12/26 11:03:01;;;;;;;20.88;7.85;;;;;;;;;;5002135;28;20208;-69
2022/12/26 11:05:26;;;;;;;11.43;4.50;;;;;;;;;;4999529;28;20208;-69
2022/12/26 11:07:53;;;;;;;17.08;4.00;;;;;;;;;;4998835;28;20227;-69
2022/12/26 11:10:20;;;;;;;15.05;2.90;;;;;;;;;;5001106;28;20221;-69
2022/12/26 11:12:49;;;;;;;19.35;6.97;;;;;;;;;;5007164;28;20295;-69
2022/12/26 11:15:30;;;;;;;12.93;3.13;;;;;;;;;;5004514;28;20267;-69
2022/12/26 11:18:05;;;;;;;31.93;12.87;;;;;;;;;;5005813;28;20706;-68
2022/12/26 11:20:31;;;;;;;18.43;5.70;;;;;;;;;;5007069;28;20215;-68
2022/12/26 11:23:11;;;;;;;14.33;2.90;;;;;;;;;;5006294;28;20216;-67
2022/12/26 11:25:39;;;;;;;14.98;4.18;;;;;;;;;;5003789;28;20323;-69
2022/12/26 11:28:17;;;;;;;11.40;2.40;;;;;;;;;;4995197;28;20224;-69
2022/12/26 11:30:42;;;;;;;18.88;7.25;;;;;;;;;;4996892;28;20204;-69
2022/12/26 11:33:08;;;;;;;12.88;3.92;;;;;;;;;;5000520;28;20240;-69
2022/12/26 11:35:36;;;;;;;15.93;5.00;;;;;;;;;;5004938;28;20618;-69
2022/12/26 11:38:01;;;;;;;19.55;7.40;;;;;;;;;;5006503;28;20274;-68
2022/12/26 11:40:28;;;;;;;14.13;4.40;;;;;;;;;;5012701;28;20204;-68
2022/12/26 11:42:54;;;;;;;17.92;5.93;;;;;;;;;;5011450;28;20209;-69
2022/12/26 11:45:21;;;;;;;11.32;2.95;;;;;;;;;;5011928;28;20687;-68
2022/12/26 11:47:46;;;;;;;17.25;6.00;;;;;;;;;;5007687;28;20270;-68
2022/12/26 11:50:17;;;;;;;18.25;5.13;;;;;;;;;;5009841;28;20216;-68
2022/12/26 11:52:44;;;;;;;32.53;13.30;;;;;;;;;;5011384;28;20679;-68
2022/12/26 11:55:21;;;;;;;14.45;2.60;;;;;;;;;;5012259;28;20642;-68
2022/12/26 11:57:55;;;;;;;10.32;2.28;;;;;;;;;;5010643;28;20209;-69
2022/12/26 12:00:21;;;;;;;8.05;1.88;;;;;;;;;;5012182;28;20222;-68
2022/12/26 12:02:46;;;;;;;6.60;2.08;;;;;;;;;;5011244;28;20262;-68
2022/12/26 12:05:13;;;;;;;9.73;2.85;;;;;;;;;;5011186;28;20621;-68
2022/12/26 12:07:51;;;;;;;10.77;1.40;;;;;;;;;;5011339;28;20283;-67
2022/12/26 12:10:19;;;;;;;6.53;1.15;;;;;;;;;;4994198;28;20245;-67
2022/12/26 12:12:46;;;;;;;7.97;1.20;;;;;;;;;;4998396;28;20216;-67
2022/12/26 12:15:21;;;;;;;6.45;1.20;;;;;;;;;;5011034;28;20223;-67
2022/12/26 12:17:52;;;;;;;7.63;1.50;;;;;;;;;;5011350;28;20204;-67
2022/12/26 12:20:19;;;;;;;7.23;1.20;;;;;;;;;;5009864;28;20212;-67
2022/12/26 12:22:59;;;;;;;7.93;0.93;;;;;;;;;;5012649;28;20307;-67
2022/12/26 12:25:24;;;;;;;7.15;1.10;;;;;;;;;;5011248;28;20211;-67
2022/12/26 12:27:58;;;;;;;4.30;0.90;;;;;;;;;;5011614;28;20220;-68
2022/12/26 12:30:28;;;;;;;6.38;1.13;;;;;;;;;;5010078;28;20219;-67
2022/12/26 12:33:02;;;;;;;8.53;1.30;;;;;;;;;;5022908;28;20262;-67
2022/12/26 12:35:38;;;;;;;9.05;1.15;;;;;;;;;;4993753;28;20689;-68
2022/12/26 12:38:03;;;;;;;7.15;1.05;;;;;;;;;;4999991;28;20762;-67
2022/12/26 12:40:35;;;;;;;5.20;1.00;;;;;;;;;;5011266;28;20216;-68
2022/12/26 12:43:00;;;;;;;5.60;1.10;;;;;;;;;;5011843;28;20558;-68
2022/12/26 12:45:29;;;;;;;7.15;1.13;;;;;;;;;;5011930;28;20216;-67
2022/12/26 12:48:06;;;;;;;4.90;1.52;;;;;;;;;;5010116;28;20710;-69
2022/12/26 12:50:36;;;;;;;9.13;1.08;;;;;;;;;;4999270;28;20258;-70
2022/12/26 12:53:17;;;;;;;7.00;1.40;;;;;;;;;;4991108;28;20213;-66
2022/12/26 12:55:46;;;;;;;6.80;1.13;;;;;;;;;;4999958;28;20574;-68
2022/12/26 12:58:16;;;;;;;8.33;0.90;;;;;;;;;;5011604;28;20228;-67
2022/12/26 13:00:44;;;;;;;8.27;1.08;;;;;;;;;;5011384;28;20308;-67
2022/12/26 13:03:10;;;;;;;8.10;1.47;;;;;;;;;;5014156;28;20692;-67
2022/12/26 13:05:36;;;;;;;7.32;1.15;;;;;;;;;;5010838;28;20201;-67
2022/12/26 13:08:06;;;;;;;6.30;1.17;;;;;;;;;;4994965;28;20259;-67
2022/12/26 13:10:32;;;;;;;6.05;1.40;;;;;;;;;;4994950;28;20641;-67
2022/12/26 13:12:58;;;;;;;9.82;1.50;;;;;;;;;;4995837;28;20208;-68
2022/12/26 13:15:31;;;;;;;10.20;1.35;;;;;;;;;;4993512;28;20209;-67
2022/12/26 13:17:59;;;;;;;11.40;1.50;;;;;;;;;;4994864;28;20213;-67
2022/12/26 13:20:24;;;;;;;8.20;1.40;;;;;;;;;;4993814;28;20212;-67
2022/12/26 13:25:36;;;;;;;6.32;1.38;;;;;;;;;;4994636;28;20220;-67
2022/12/26 13:28:08;;;;;;;6.57;1.00;;;;;;;;;;4993939;28;20737;-66
2022/12/26 13:30:33;;;;;;;8.63;1.55;;;;;;;;;;4993913;28;20690;-69
2022/12/26 13:32:59;;;;;;;7.78;1.30;;;;;;;;;;5000429;28;20236;-67
2022/12/26 13:35:42;;;;;;;10.55;1.45;;;;;;;;;;5014381;28;20216;-67
2022/12/26 13:38:08;;;;;;;8.55;1.55;;;;;;;;;;5014466;28;20270;-67
2022/12/26 13:40:33;;;;;;;5.60;1.73;;;;;;;;;;4997550;28;20204;-67
2022/12/26 13:45:50;;;;;;;5.93;1.13;;;;;;;;;;5000538;28;20220;-67
2022/12/26 13:48:15;;;;;;;9.25;2.42;;;;;;;;;;5014304;28;20239;-67
2022/12/26 13:50:45;;;;;;;5.93;1.23;;;;;;;;;;5013518;28;20213;-67
2022/12/26 13:53:22;;;;;;;7.07;1.10;;;;;;;;;;5014293;28;20560;-67
2022/12/26 13:55:47;;;;;;;4.78;1.02;;;;;;;;;;5014819;28;20209;-68
2022/12/26 13:58:18;;;;;;;5.63;1.00;;;;;;;;;;5013462;28;20242;-67
2022/12/26 14:00:44;;;;;;;7.32;1.15;;;;;;;;;;4997167;28;20275;-68
2022/12/26 14:03:15;;;;;;;10.68;1.63;;;;;;;;;;4996518;28;20220;-67
2022/12/26 14:05:43;;;;;;;4.25;1.27;;;;;;;;;;4996294;28;20267;-67
2022/12/26 14:08:09;;;;;;;5.18;1.00;;;;;;;;;;5013911;28;20220;-67
2022/12/26 14:10:38;;;;;;;6.10;1.38;;;;;;;;;;5014624;28;20255;-67
2022/12/26 14:13:03;;;;;;;7.47;1.20;;;;;;;;;;5013872;28;20262;-66
2022/12/26 14:15:31;;;;;;;4.60;1.17;;;;;;;;;;5014188;28;20212;-67
2022/12/26 14:18:06;;;;;;;7.90;1.23;;;;;;;;;;5013676;28;20299;-67
2022/12/26 14:20:50;;;;;;;6.55;0.88;;;;;;;;;;4996472;28;20204;-67
2022/12/26 14:23:16;;;;;;;4.05;0.90;;;;;;;;;;5013578;28;20574;-67
2022/12/26 14:25:44;;;;;;;5.47;0.98;;;;;;;;;;5013577;28;20216;-67
2022/12/26 14:28:13;;;;;;;9.02;1.20;;;;;;;;;;5013543;28;20220;-67
2022/12/26 14:30:39;;;;;;;6.95;1.20;;;;;;;;;;4996704;28;20209;-67
2022/12/26 14:33:11;;;;;;;5.55;1.15;;;;;;;;;;5012496;28;20310;-67
2022/12/26 14:35:43;;;;;;;4.72;0.90;;;;;;;;;;5014315;28;20213;-67
2022/12/26 14:38:12;;;;;;;5.47;1.05;;;;;;;;;;4995913;28;20223;-67
2022/12/26 14:40:38;;;;;;;7.13;1.45;;;;;;;;;;5013127;28;20216;-67
2022/12/26 14:43:09;;;;;;;6.50;1.10;;;;;;;;;;5013416;28;20748;-66
2022/12/26 14:45:35;;;;;;;6.07;1.10;;;;;;;;;;4996186;28;20554;-67
2022/12/26 14:48:01;;;;;;;4.18;0.95;;;;;;;;;;5012088;28;20232;-66
2022/12/26 14:50:30;;;;;;;6.07;0.98;;;;;;;;;;5013823;28;20213;-67
2022/12/26 14:53:15;;;;;;;6.32;1.00;;;;;;;;;;5012505;28;20686;-66
2022/12/26 14:55:48;;;;;;;5.97;1.00;;;;;;;;;;5013478;28;20212;-67
2022/12/26 14:58:22;;;;;;;6.25;0.90;;;;;;;;;;5013185;28;20220;-67
2022/12/26 15:00:47;;;;;;;4.43;1.08;;;;;;;;;;5012747;28;20222;-67
2022/12/26 15:03:16;;;;;;;5.20;1.20;;;;;;;;;;5012815;28;20208;-66
2022/12/26 15:05:41;;;;;;;4.50;0.90;;;;;;;;;;5013685;28;20209;-67
2022/12/26 15:08:11;;;;;;;4.40;1.13;;;;;;;;;;4994482;28;20227;-66
2022/12/26 15:10:37;;;;;;;6.40;1.30;;;;;;;;;;4996143;28;20217;-67
2022/12/26 15:13:04;;;;;;;6.82;1.40;;;;;;;;;;5012809;28;20234;-66
2022/12/26 15:15:31;;;;;;;8.80;1.80;;;;;;;;;;5012508;28;20299;-66
2022/12/26 15:17:56;;;;;;;6.63;2.08;;;;;;;;;;5012975;28;20295;-67
2022/12/26 15:20:32;;;;;;;10.98;4.35;;;;;;;;;;5012884;28;20634;-66
2022/12/26 15:23:03;;;;;;;10.40;4.78;;;;;;;;;;4994944;28;20222;-67
2022/12/26 15:25:43;;;;;;;12.80;5.82;;;;;;;;;;4995004;28;20303;-66
2022/12/26 15:28:14;;;;;;;8.13;3.35;;;;;;;;;;4994362;28;20231;-66
2022/12/26 15:30:40;;;;;;;6.72;1.85;;;;;;;;;;5013064;28;20204;-66
2022/12/26 15:33:12;;;;;;;10.23;1.85;;;;;;;;;;5012208;28;20236;-66
2022/12/26 15:35:39;;;;;;;7.35;1.98;;;;;;;;;;5011285;28;20675;-67
2022/12/26 15:38:10;;;;;;;9.23;2.03;;;;;;;;;;5011386;28;20220;-66
2022/12/26 15:40:36;;;;;;;7.88;1.88;;;;;;;;;;5011240;28;20208;-67
2022/12/26 15:43:09;;;;;;;10.27;1.67;;;;;;;;;;4991395;28;20229;-66
2022/12/26 15:45:43;;;;;;;8.60;1.40;;;;;;;;;;4993600;28;20213;-67
2022/12/26 15:48:13;;;;;;;11.03;1.50;;;;;;;;;;4992458;28;20267;-67
2022/12/26 15:50:38;;;;;;;5.43;1.60;;;;;;;;;;4994946;28;20589;-67
2022/12/26 15:53:05;;;;;;;8.40;1.33;;;;;;;;;;4992710;28;20221;-66
2022/12/26 15:55:43;;;;;;;3.67;1.03;;;;;;;;;;5000158;28;20282;-67
2022/12/26 15:58:14;;;;;;;12.20;1.50;;;;;;;;;;5011654;28;20295;-67
2022/12/26 16:00:46;;;;;;;7.63;1.77;;;;;;;;;;5012879;28;20255;-67
2022/12/26 16:03:12;;;;;;;8.33;1.60;;;;;;;;;;5009911;28;20286;-67
2022/12/26 16:05:50;;;;;;;7.40;1.77;;;;;;;;;;5012864;28;20607;-68
2022/12/26 16:08:21;;;;;;;7.30;1.80;;;;;;;;;;5010861;28;20263;-67
2022/12/26 16:10:46;;;;;;;10.23;1.40;;;;;;;;;;5012110;28;20216;-67
2022/12/26 16:13:11;;;;;;;8.50;1.40;;;;;;;;;;5012242;28;20218;-67
2022/12/26 16:15:46;;;;;;;6.47;1.57;;;;;;;;;;5012838;28;20212;-67
2022/12/26 16:18:12;;;;;;;9.20;1.70;;;;;;;;;;5011238;28;20256;-67
2022/12/26 16:23:22;;;;;;;6.97;1.52;;;;;;;;;;5012073;28;20235;-67
2022/12/26 16:25:47;;;;;;;9.23;2.15;;;;;;;;;;5012208;28;20220;-66
2022/12/26 16:28:12;;;;;;;9.67;2.60;;;;;;;;;;5010784;28;20613;-67
2022/12/26 16:30:38;;;;;;;8.13;2.60;;;;;;;;;;5012632;28;20266;-66
2022/12/26 16:33:04;;;;;;;13.17;3.33;;;;;;;;;;5010568;28;20228;-66
2022/12/26 16:35:36;;;;;;;13.32;3.10;;;;;;;;;;5012494;28;20223;-66
2022/12/26 16:38:02;;;;;;;12.27;2.83;;;;;;;;;;5014444;28;20224;-67
2022/12/26 16:40:32;;;;;;;9.07;3.70;;;;;;;;;;5015347;28;20258;-67
2022/12/26 16:43:05;;;;;;;11.10;3.47;;;;;;;;;;5016308;28;20232;-66
2022/12/26 16:45:31;;;;;;;9.77;3.67;;;;;;;;;;5015126;28;20221;-67
2022/12/26 16:47:57;;;;;;;12.37;3.33;;;;;;;;;;5014529;28;20204;-67